createdAt,value
2017-01-09T00:00:04.436Z,633.29
2017-01-09T00:01:04.273Z,631.96
2017-01-09T00:02:04.412Z,635.35
2017-01-09T00:03:04.314Z,634.93
2017-01-09T00:04:04.414Z,633.83
2017-01-09T00:05:04.305Z,633.27
2017-01-09T00:06:04.384Z,631.83
2017-01-09T00:07:04.335Z,631.63
2017-01-09T00:08:04.321Z,631.88
2017-01-09T00:09:04.296Z,632.81
2017-01-09T00:10:04.373Z,633.71
2017-01-09T00:11:04.338Z,630.59
2017-01-09T00:12:04.363Z,629.9
2017-01-09T00:13:04.335Z,628.22
2017-01-09T00:14:04.426Z,629.73
2017-01-09T00:15:04.296Z,632.89
2017-01-09T00:16:04.433Z,634.89
2017-01-09T00:17:04.302Z,633.9
2017-01-09T00:18:04.439Z,633.17
2017-01-09T00:19:04.352Z,633.47
2017-01-09T00:20:04.428Z,632.76
2017-01-09T00:21:04.316Z,630.31
2017-01-09T00:22:04.351Z,629.06
2017-01-09T00:23:04.338Z,629.62
2017-01-09T00:24:04.460Z,632.54
2017-01-09T00:25:04.317Z,636.46
2017-01-09T00:26:04.338Z,634.94
2017-01-09T00:27:04.366Z,632.9
2017-01-09T00:28:04.461Z,632.76
2017-01-09T00:29:04.362Z,631.55
2017-01-09T00:30:04.506Z,632.13
2017-01-09T00:31:04.321Z,633.19
2017-01-09T00:32:04.473Z,632.6
2017-01-09T00:33:04.344Z,630.7
2017-01-09T00:34:04.428Z,630.35
2017-01-09T00:35:04.323Z,629.03
2017-01-09T00:36:04.333Z,630.3
2017-01-09T00:37:04.329Z,630.55
2017-01-09T00:38:04.382Z,628.08
2017-01-09T00:39:04.388Z,627.01
2017-01-09T00:40:04.367Z,628.13
2017-01-09T00:41:04.354Z,628.05
2017-01-09T00:42:04.410Z,629.38
2017-01-09T00:43:04.338Z,629.45
2017-01-09T00:44:04.353Z,628.43
2017-01-09T00:45:04.361Z,630.31
2017-01-09T00:46:04.461Z,631.44
2017-01-09T00:47:04.333Z,632.38
2017-01-09T00:48:04.352Z,632.74
2017-01-09T00:49:04.359Z,632.81
2017-01-09T00:50:04.450Z,630.93
2017-01-09T00:51:04.351Z,631.33
2017-01-09T00:52:04.431Z,632.11
2017-01-09T00:53:04.342Z,630.74
2017-01-09T00:54:04.417Z,632.82
2017-01-09T00:55:04.340Z,632.82
2017-01-09T00:56:04.348Z,634.07
2017-01-09T00:57:04.357Z,633.67
2017-01-09T00:58:04.350Z,636.44
2017-01-09T00:59:04.337Z,637.14
2017-01-09T01:00:04.490Z,636.23
2017-01-09T01:01:04.352Z,635.66
2017-01-09T01:02:04.369Z,635
2017-01-09T01:03:04.350Z,634.64
2017-01-09T01:04:04.356Z,634.97
2017-01-09T01:05:04.379Z,634.2
2017-01-09T01:06:04.356Z,634.81
2017-01-09T01:07:04.361Z,634.64
2017-01-09T01:08:04.437Z,634.99
2017-01-09T01:09:04.427Z,635.17
2017-01-09T01:10:04.379Z,635.88
2017-01-09T01:11:04.370Z,636.65
2017-01-09T01:12:04.378Z,636.42
2017-01-09T01:13:04.347Z,635.48
2017-01-09T01:14:04.406Z,634.45
2017-01-09T01:15:04.357Z,632.9
2017-01-09T01:16:04.375Z,633.58
2017-01-09T01:17:04.356Z,635.33
2017-01-09T01:18:04.393Z,635.78
2017-01-09T01:19:04.452Z,633.38
2017-01-09T01:20:05.127Z,634.42
2017-01-09T01:21:04.406Z,634.43
2017-01-09T01:22:04.424Z,632.81
2017-01-09T01:23:04.378Z,631.24
2017-01-09T01:24:04.390Z,629.89
2017-01-09T01:25:04.373Z,629.47
2017-01-09T01:26:04.457Z,629.08
2017-01-09T01:27:04.381Z,630.99
2017-01-09T01:28:04.385Z,630.39
2017-01-09T01:29:04.414Z,631.99
2017-01-09T01:30:04.511Z,633.16
2017-01-09T01:31:04.427Z,634.35
2017-01-09T01:32:04.415Z,633.35
2017-01-09T01:33:04.386Z,631.05
2017-01-09T01:34:04.500Z,631.55
2017-01-09T01:35:04.386Z,633.23
2017-01-09T01:36:04.417Z,630.34
2017-01-09T01:37:04.467Z,629.15
2017-01-09T01:38:04.418Z,629.13
2017-01-09T01:39:04.388Z,631.15
2017-01-09T01:40:09.547Z,633.15
2017-01-09T01:41:04.392Z,631.74
2017-01-09T01:42:04.469Z,631.12
2017-01-09T01:43:04.407Z,631.52
2017-01-09T01:44:04.485Z,632.46
2017-01-09T01:45:04.417Z,630.81
2017-01-09T01:46:04.382Z,632.3
2017-01-09T01:47:04.396Z,633.95
2017-01-09T01:48:04.483Z,633.02
2017-01-09T01:49:04.423Z,630.44
2017-01-09T01:50:04.415Z,630.21
2017-01-09T01:51:04.430Z,631.38
2017-01-09T01:52:04.425Z,630.44
2017-01-09T01:53:04.392Z,631.56
2017-01-09T01:54:04.458Z,633.98
2017-01-09T01:55:04.402Z,634.31
2017-01-09T01:56:04.442Z,632.38
2017-01-09T01:57:04.421Z,631.75
2017-01-09T01:58:04.451Z,632.54
2017-01-09T01:59:04.453Z,632.83
2017-01-09T02:00:04.451Z,632.82
2017-01-09T02:01:04.404Z,633.76
2017-01-09T02:02:04.523Z,633.77
2017-01-09T02:03:05.279Z,633.71
2017-01-09T02:04:04.468Z,635.16
2017-01-09T02:05:04.433Z,634.03
2017-01-09T02:06:04.474Z,635.29
2017-01-09T02:07:05.413Z,634.51
2017-01-09T02:08:04.507Z,635.41
2017-01-09T02:09:04.410Z,633.9
2017-01-09T02:10:04.483Z,636.17
2017-01-09T02:11:04.424Z,635.81
2017-01-09T02:12:04.492Z,635.39
2017-01-09T02:13:04.495Z,636.55
2017-01-09T02:14:04.442Z,635.95
2017-01-09T02:15:04.422Z,636.28
2017-01-09T02:16:04.443Z,636.64
2017-01-09T02:17:04.435Z,635.34
2017-01-09T02:18:04.437Z,636.46
2017-01-09T02:19:04.472Z,636.59
2017-01-09T02:20:04.461Z,636.56
2017-01-09T02:21:04.415Z,637.16
2017-01-09T02:22:04.442Z,635.62
2017-01-09T02:23:04.425Z,636.53
2017-01-09T02:24:04.437Z,635.22
2017-01-09T02:25:04.464Z,634.66
2017-01-09T02:26:04.469Z,636.34
2017-01-09T02:27:04.431Z,635.71
2017-01-09T02:28:04.483Z,634.94
2017-01-09T02:29:04.475Z,633.08
2017-01-09T02:30:04.492Z,636.24
2017-01-09T02:31:04.421Z,634.33
2017-01-09T02:32:04.463Z,635.47
2017-01-09T02:33:04.472Z,634.93
2017-01-09T02:34:04.531Z,634.31
2017-01-09T02:35:04.490Z,634.89
2017-01-09T02:36:04.541Z,635.2
2017-01-09T02:37:04.480Z,635.18
2017-01-09T02:38:04.504Z,636.31
2017-01-09T02:39:04.471Z,637.2
2017-01-09T02:40:04.540Z,636.6
2017-01-09T02:41:04.498Z,638.98
2017-01-09T02:42:04.463Z,637.8
2017-01-09T02:43:04.463Z,639.54
2017-01-09T02:44:04.587Z,638.53
2017-01-09T02:45:04.480Z,638.73
2017-01-09T02:46:04.521Z,638.41
2017-01-09T02:47:04.459Z,638.01
2017-01-09T02:48:04.478Z,638.59
2017-01-09T02:49:04.488Z,637.72
2017-01-09T02:50:04.519Z,639.03
2017-01-09T02:51:04.492Z,638.27
2017-01-09T02:52:04.570Z,638.69
2017-01-09T02:53:04.488Z,640.04
2017-01-09T02:54:04.563Z,640.23
2017-01-09T02:55:04.687Z,640.77
2017-01-09T02:56:04.520Z,640.03
2017-01-09T02:57:04.490Z,641.67
2017-01-09T02:58:04.492Z,639.85
2017-01-09T02:59:04.531Z,637.59
2017-01-09T03:00:04.528Z,637.64
2017-01-09T03:01:05.219Z,638.13
2017-01-09T03:02:04.624Z,638.1
2017-01-09T03:03:04.482Z,638.29
2017-01-09T03:04:04.499Z,641.05
2017-01-09T03:05:04.533Z,639.98
2017-01-09T03:06:04.507Z,638.72
2017-01-09T03:07:04.497Z,634.95
2017-01-09T03:08:04.528Z,632.62
2017-01-09T03:09:04.538Z,627.81
2017-01-09T03:10:05.491Z,629.21
2017-01-09T03:11:04.490Z,631.34
2017-01-09T03:12:04.550Z,632.85
2017-01-09T03:13:04.495Z,629.6
2017-01-09T03:14:04.562Z,628.74
2017-01-09T03:15:04.510Z,629.85
2017-01-09T03:16:05.457Z,630.23
2017-01-09T03:17:04.500Z,632.13
2017-01-09T03:18:04.511Z,633.39
2017-01-09T03:19:04.745Z,632.96
2017-01-09T03:20:04.574Z,631.69
2017-01-09T03:21:04.519Z,632.46
2017-01-09T03:22:04.557Z,633
2017-01-09T03:23:04.497Z,632.32
2017-01-09T03:24:05.085Z,628.04
2017-01-09T03:25:04.519Z,627.51
2017-01-09T03:26:04.497Z,630.23
2017-01-09T03:27:04.545Z,629.49
2017-01-09T03:28:04.515Z,627.18
2017-01-09T03:29:04.509Z,629.8
2017-01-09T03:30:04.562Z,628.55
2017-01-09T03:31:04.517Z,629.13
2017-01-09T03:32:04.559Z,629.31
2017-01-09T03:33:04.513Z,629.46
2017-01-09T03:34:04.647Z,632.19
2017-01-09T03:35:04.504Z,630.21
2017-01-09T03:36:04.605Z,629.28
2017-01-09T03:37:04.535Z,630.71
2017-01-09T03:38:04.600Z,632.19
2017-01-09T03:39:04.564Z,632.19
2017-01-09T03:40:04.568Z,631.1
2017-01-09T03:41:04.537Z,631.39
2017-01-09T03:42:04.587Z,632.47
2017-01-09T03:43:04.534Z,633.53
2017-01-09T03:44:04.555Z,632.43
2017-01-09T03:45:04.531Z,634.35
2017-01-09T03:46:04.527Z,632.29
2017-01-09T03:47:04.553Z,630.56
2017-01-09T03:48:04.543Z,630.65
2017-01-09T03:49:04.552Z,631.22
2017-01-09T03:50:04.582Z,630.16
2017-01-09T03:51:04.693Z,629.63
2017-01-09T03:52:04.581Z,630.34
2017-01-09T03:53:04.564Z,630.48
2017-01-09T03:54:04.579Z,631.74
2017-01-09T03:55:04.573Z,631.16
2017-01-09T03:56:04.599Z,629.63
2017-01-09T03:57:05.273Z,627.98
2017-01-09T03:58:04.613Z,627.26
2017-01-09T03:59:04.544Z,627.63
2017-01-09T04:00:04.575Z,628.71
2017-01-09T04:01:04.565Z,631.05
2017-01-09T04:02:04.604Z,629.01
2017-01-09T04:03:04.584Z,628.76
2017-01-09T04:04:04.550Z,629.16
2017-01-09T04:05:04.600Z,628.54
2017-01-09T04:06:04.602Z,629.68
2017-01-09T04:07:04.564Z,630.43
2017-01-09T04:08:04.565Z,627.12
2017-01-09T04:09:04.574Z,628.86
2017-01-09T04:10:04.614Z,628.46
2017-01-09T04:11:04.551Z,625.58
2017-01-09T04:12:04.594Z,626.59
2017-01-09T04:13:04.768Z,626.91
2017-01-09T04:14:05.223Z,627.93
2017-01-09T04:15:04.612Z,626.8
2017-01-09T04:16:04.622Z,628.68
2017-01-09T04:17:04.594Z,626.71
2017-01-09T04:18:04.636Z,626.88
2017-01-09T04:19:04.583Z,626.99
2017-01-09T04:20:04.586Z,626.2
2017-01-09T04:21:04.555Z,625.66
2017-01-09T04:22:04.603Z,625.28
2017-01-09T04:23:04.817Z,625.88
2017-01-09T04:24:04.634Z,624.71
2017-01-09T04:25:04.562Z,623.99
2017-01-09T04:26:04.781Z,626.21
2017-01-09T04:27:04.600Z,625.04
2017-01-09T04:28:04.573Z,626.16
2017-01-09T04:29:04.599Z,624.64
2017-01-09T04:30:04.582Z,624.92
2017-01-09T04:31:04.615Z,625.86
2017-01-09T04:32:04.602Z,627.32
2017-01-09T04:33:04.603Z,627.42
2017-01-09T04:34:04.609Z,626.88
2017-01-09T04:35:04.612Z,627.35
2017-01-09T04:36:04.591Z,626.94
2017-01-09T04:37:04.590Z,626.19
2017-01-09T04:38:04.608Z,625.67
2017-01-09T04:39:04.602Z,626.27
2017-01-09T04:40:04.590Z,626.24
2017-01-09T04:41:04.607Z,625.19
2017-01-09T04:42:04.590Z,624.22
2017-01-09T04:43:04.663Z,624.73
2017-01-09T04:44:04.601Z,622.88
2017-01-09T04:45:04.613Z,624.61
2017-01-09T04:46:04.636Z,627.23
2017-01-09T04:47:04.620Z,624.6
2017-01-09T04:48:04.629Z,624.83
2017-01-09T04:49:04.655Z,623.1
2017-01-09T04:50:04.644Z,624.24
2017-01-09T04:51:04.617Z,625.68
2017-01-09T04:52:04.623Z,625.44
2017-01-09T04:53:04.622Z,626.68
2017-01-09T04:54:04.612Z,626.17
2017-01-09T04:55:04.627Z,626.74
2017-01-09T04:56:04.625Z,626.67
2017-01-09T04:57:04.616Z,625.93
2017-01-09T04:58:04.667Z,625.59
2017-01-09T04:59:04.622Z,626.12
2017-01-09T05:00:04.626Z,624.33
2017-01-09T05:01:04.659Z,624.43
2017-01-09T05:02:04.653Z,624.78
2017-01-09T05:03:04.639Z,625.15
2017-01-09T05:04:04.649Z,624.7
2017-01-09T05:05:04.769Z,625.97
2017-01-09T05:06:04.659Z,625.85
2017-01-09T05:07:04.638Z,625.43
2017-01-09T05:08:04.640Z,624.89
2017-01-09T05:09:04.626Z,623.72
2017-01-09T05:10:04.631Z,623.39
2017-01-09T05:11:04.669Z,624.86
2017-01-09T05:12:04.702Z,624.06
2017-01-09T05:13:04.689Z,623.72
2017-01-09T05:14:04.613Z,623.94
2017-01-09T05:15:04.631Z,625.23
2017-01-09T05:16:04.647Z,624.81
2017-01-09T05:17:04.674Z,627.04
2017-01-09T05:18:04.652Z,626.84
2017-01-09T05:19:04.773Z,624.97
2017-01-09T05:20:04.663Z,625.86
2017-01-09T05:21:04.662Z,625.5
2017-01-09T05:22:05.028Z,625.91
2017-01-09T05:23:04.796Z,627.03
2017-01-09T05:24:04.661Z,624.98
2017-01-09T05:25:04.663Z,625.76
2017-01-09T05:26:04.653Z,626.85
2017-01-09T05:27:04.808Z,626.94
2017-01-09T05:28:04.655Z,627.09
2017-01-09T05:29:04.673Z,627.86
2017-01-09T05:30:04.691Z,626.72
2017-01-09T05:31:04.698Z,627.15
2017-01-09T05:32:04.688Z,627.69
2017-01-09T05:33:04.793Z,626.99
2017-01-09T05:34:04.893Z,627.15
2017-01-09T05:35:04.708Z,626.76
2017-01-09T05:36:04.689Z,626.16
2017-01-09T05:37:04.713Z,627.8
2017-01-09T05:38:04.681Z,628.1
2017-01-09T05:39:05.359Z,628.51
2017-01-09T05:40:04.671Z,628.81
2017-01-09T05:41:05.012Z,628.49
2017-01-09T05:42:04.669Z,626.64
2017-01-09T05:43:04.706Z,626.45
2017-01-09T05:44:04.696Z,628.5
2017-01-09T05:45:04.842Z,629.22
2017-01-09T05:46:04.688Z,628.47
2017-01-09T05:47:04.740Z,627.7
2017-01-09T05:48:04.696Z,628.52
2017-01-09T05:49:04.699Z,629.54
2017-01-09T05:50:04.703Z,628.92
2017-01-09T05:51:04.721Z,627.29
2017-01-09T05:52:05.259Z,627.78
2017-01-09T05:53:04.718Z,630.2
2017-01-09T05:54:04.763Z,631.32
2017-01-09T05:55:04.801Z,631.31
2017-01-09T05:56:04.773Z,629.31
2017-01-09T05:57:04.736Z,629.85
2017-01-09T05:58:04.742Z,627.38
2017-01-09T05:59:04.753Z,627.62
2017-01-09T06:00:04.762Z,627.23
2017-01-09T06:01:04.825Z,628.35
2017-01-09T06:02:04.757Z,627.79
2017-01-09T06:03:04.821Z,627.19
2017-01-09T06:04:04.759Z,627.16
2017-01-09T06:05:04.848Z,628.24
2017-01-09T06:06:04.698Z,630.09
2017-01-09T06:07:04.758Z,630.81
2017-01-09T06:08:04.706Z,629.85
2017-01-09T06:09:04.822Z,630.37
2017-01-09T06:10:04.699Z,630.71
2017-01-09T06:11:04.804Z,630.32
2017-01-09T06:12:04.749Z,632.09
2017-01-09T06:13:04.744Z,632.24
2017-01-09T06:14:04.785Z,630.92
2017-01-09T06:15:04.868Z,630.89
2017-01-09T06:16:04.781Z,631
2017-01-09T06:17:04.907Z,632.79
2017-01-09T06:18:04.767Z,631.86
2017-01-09T06:19:04.785Z,631.1
2017-01-09T06:20:04.746Z,631.31
2017-01-09T06:21:04.797Z,631.92
2017-01-09T06:22:04.831Z,632.4
2017-01-09T06:23:04.758Z,631.52
2017-01-09T06:24:04.772Z,631.98
2017-01-09T06:25:04.867Z,631.82
2017-01-09T06:26:04.748Z,632.84
2017-01-09T06:27:04.775Z,631.56
2017-01-09T06:28:04.737Z,632.59
2017-01-09T06:29:04.742Z,630.68
2017-01-09T06:30:04.755Z,630.1
2017-01-09T06:31:04.878Z,631.55
2017-01-09T06:32:04.755Z,631.54
2017-01-09T06:33:04.805Z,631.15
2017-01-09T06:34:04.736Z,630.76
2017-01-09T06:35:04.766Z,632.56
2017-01-09T06:36:04.790Z,632.99
2017-01-09T06:37:04.799Z,631.47
2017-01-09T06:38:04.742Z,630.35
2017-01-09T06:39:04.896Z,629.8
2017-01-09T06:40:04.804Z,631.08
2017-01-09T06:41:04.965Z,629.73
2017-01-09T06:42:04.798Z,630.49
2017-01-09T06:43:14.713Z,630.26
2017-01-09T06:44:04.754Z,630.23
2017-01-09T06:45:04.864Z,629.28
2017-01-09T06:46:04.759Z,629.3
2017-01-09T06:47:04.764Z,629.67
2017-01-09T06:48:04.763Z,630.18
2017-01-09T06:49:04.864Z,628.86
2017-01-09T06:50:04.791Z,629.2
2017-01-09T06:51:04.794Z,628.05
2017-01-09T06:52:04.784Z,631.5
2017-01-09T06:53:04.777Z,630.2
2017-01-09T06:54:04.781Z,632.07
2017-01-09T06:55:04.861Z,631.11
2017-01-09T06:56:04.743Z,631.09
2017-01-09T06:57:04.803Z,629.42
2017-01-09T06:58:04.806Z,628.31
2017-01-09T06:59:04.821Z,629.96
2017-01-09T07:00:04.801Z,630.48
2017-01-09T07:01:04.783Z,631.84
2017-01-09T07:02:04.773Z,632.4
2017-01-09T07:03:04.871Z,631.22
2017-01-09T07:04:04.802Z,631.64
2017-01-09T07:05:04.860Z,631.42
2017-01-09T07:06:04.802Z,632.18
2017-01-09T07:07:04.795Z,632.36
2017-01-09T07:08:04.857Z,632.93
2017-01-09T07:09:04.808Z,633.05
2017-01-09T07:10:04.826Z,631.95
2017-01-09T07:11:04.824Z,633.76
2017-01-09T07:12:04.795Z,633.37
2017-01-09T07:13:04.922Z,633.72
2017-01-09T07:14:04.823Z,633.15
2017-01-09T07:15:10.431Z,632.64
2017-01-09T07:16:04.812Z,631.87
2017-01-09T07:17:04.945Z,632.02
2017-01-09T07:18:04.838Z,632.57
2017-01-09T07:19:04.910Z,633.45
2017-01-09T07:20:04.780Z,632.9
2017-01-09T07:21:04.925Z,632.33
2017-01-09T07:22:04.870Z,634.01
2017-01-09T07:23:04.893Z,631.57
2017-01-09T07:24:04.811Z,632.84
2017-01-09T07:25:04.911Z,632.82
2017-01-09T07:26:04.834Z,632.07
2017-01-09T07:27:04.866Z,633.37
2017-01-09T07:28:04.841Z,633.42
2017-01-09T07:29:04.943Z,631.89
2017-01-09T07:30:04.817Z,631.88
2017-01-09T07:31:04.961Z,631.75
2017-01-09T07:32:04.814Z,631.01
2017-01-09T07:33:04.880Z,628.9
2017-01-09T07:34:04.831Z,629.52
2017-01-09T07:35:04.848Z,627.3
2017-01-09T07:36:04.909Z,630.95
2017-01-09T07:37:04.902Z,630.76
2017-01-09T07:38:04.859Z,631.34
2017-01-09T07:39:05.011Z,632.09
2017-01-09T07:40:06.561Z,633.32
2017-01-09T07:41:04.966Z,634.06
2017-01-09T07:42:04.840Z,634.98
2017-01-09T07:43:04.909Z,636.05
2017-01-09T07:44:04.867Z,633.98
2017-01-09T07:45:04.960Z,633.8
2017-01-09T07:46:04.825Z,634.14
2017-01-09T07:47:04.934Z,634.82
2017-01-09T07:48:04.880Z,633.7
2017-01-09T07:49:04.852Z,633.14
2017-01-09T07:50:05.428Z,632.89
2017-01-09T07:51:04.913Z,632.7
2017-01-09T07:52:04.816Z,633.07
2017-01-09T07:53:04.847Z,632.93
2017-01-09T07:54:04.881Z,632.32
2017-01-09T07:55:04.897Z,634.37
2017-01-09T07:56:04.829Z,633.89
2017-01-09T07:57:04.916Z,634.56
2017-01-09T07:58:04.885Z,634.7
2017-01-09T07:59:04.886Z,635.25
2017-01-09T08:00:04.853Z,633.94
2017-01-09T08:01:04.931Z,635.1
2017-01-09T08:02:04.836Z,636.87
2017-01-09T08:03:04.841Z,635.19
2017-01-09T08:04:04.890Z,636.28
2017-01-09T08:05:04.937Z,635.74
2017-01-09T08:06:04.892Z,636.84
2017-01-09T08:07:04.917Z,636.44
2017-01-09T08:08:04.899Z,637.53
2017-01-09T08:09:04.992Z,638.07
2017-01-09T08:10:04.888Z,637.85
2017-01-09T08:11:05.085Z,638.73
2017-01-09T08:12:04.865Z,639.45
2017-01-09T08:13:04.996Z,638.89
2017-01-09T08:14:04.909Z,639.06
2017-01-09T08:15:04.894Z,639.81
2017-01-09T08:16:04.867Z,640.53
2017-01-09T08:17:04.903Z,638.85
2017-01-09T08:18:04.868Z,639.59
2017-01-09T08:19:05.019Z,640.11
2017-01-09T08:20:04.877Z,640.15
2017-01-09T08:21:04.913Z,640.85
2017-01-09T08:22:04.855Z,641.59
2017-01-09T08:23:05.038Z,642.1
2017-01-09T08:24:04.965Z,644.26
2017-01-09T08:25:04.963Z,644.41
2017-01-09T08:26:04.864Z,645.93
2017-01-09T08:27:05.039Z,646.09
2017-01-09T08:28:04.916Z,646.79
2017-01-09T08:29:05.033Z,648.13
2017-01-09T08:30:04.913Z,650.32
2017-01-09T08:31:05.058Z,648.26
2017-01-09T08:32:04.938Z,649.35
2017-01-09T08:33:04.917Z,650.25
2017-01-09T08:34:04.953Z,650.38
2017-01-09T08:35:05.067Z,651.09
2017-01-09T08:36:04.885Z,651.27
2017-01-09T08:37:05.114Z,653.3
2017-01-09T08:38:04.875Z,652.46
2017-01-09T08:39:04.965Z,651.01
2017-01-09T08:40:04.910Z,650.48
2017-01-09T08:41:04.912Z,652.67
2017-01-09T08:42:04.896Z,655.75
2017-01-09T08:43:05.009Z,655.94
2017-01-09T08:44:04.942Z,659.44
2017-01-09T08:45:04.900Z,659.62
2017-01-09T08:46:04.894Z,660.17
2017-01-09T08:47:04.909Z,660.96
2017-01-09T08:48:04.911Z,662.03
2017-01-09T08:49:05.079Z,660.73
2017-01-09T08:50:04.976Z,659.17
2017-01-09T08:51:04.978Z,661.28
2017-01-09T08:52:04.906Z,662.72
2017-01-09T08:53:05.066Z,663.46
2017-01-09T08:54:04.942Z,660.92
2017-01-09T08:55:05.018Z,663.27
2017-01-09T08:56:05.102Z,663.6
2017-01-09T08:57:04.949Z,666.45
2017-01-09T08:58:04.918Z,665.19
2017-01-09T08:59:05.063Z,667.76
2017-01-09T09:00:04.965Z,667.57
2017-01-09T09:01:04.954Z,667.02
2017-01-09T09:02:04.975Z,669.91
2017-01-09T09:03:04.961Z,671.52
2017-01-09T09:04:04.931Z,672.42
2017-01-09T09:05:04.963Z,673.3
2017-01-09T09:06:05.000Z,672.58
2017-01-09T09:07:05.019Z,675.97
2017-01-09T09:08:04.960Z,676.82
2017-01-09T09:09:05.124Z,676.7
2017-01-09T09:10:04.991Z,676.52
2017-01-09T09:11:04.931Z,676
2017-01-09T09:12:04.965Z,673.73
2017-01-09T09:13:05.002Z,675.48
2017-01-09T09:14:04.973Z,675.66
2017-01-09T09:15:05.075Z,671.57
2017-01-09T09:16:04.969Z,672.96
2017-01-09T09:17:05.098Z,673.87
2017-01-09T09:18:04.957Z,674.52
2017-01-09T09:19:05.100Z,675.21
2017-01-09T09:20:05.042Z,675.02
2017-01-09T09:21:05.006Z,676.77
2017-01-09T09:22:04.993Z,676.93
2017-01-09T09:23:05.129Z,675.96
2017-01-09T09:24:04.982Z,674.7
2017-01-09T09:25:05.071Z,674.55
2017-01-09T09:26:04.979Z,675.59
2017-01-09T09:27:05.026Z,677.12
2017-01-09T09:28:04.966Z,679.47
2017-01-09T09:29:05.728Z,681.01
2017-01-09T09:30:05.089Z,682.09
2017-01-09T09:31:04.971Z,683.15
2017-01-09T09:32:05.004Z,684.34
2017-01-09T09:33:05.076Z,684.86
2017-01-09T09:34:05.037Z,686.62
2017-01-09T09:35:05.024Z,685.34
2017-01-09T09:36:04.998Z,684.42
2017-01-09T09:37:04.998Z,687.19
2017-01-09T09:38:04.992Z,688.88
2017-01-09T09:39:05.095Z,691.51
2017-01-09T09:40:05.015Z,692.25
2017-01-09T09:41:05.096Z,693
2017-01-09T09:42:04.992Z,694.33
2017-01-09T09:43:05.049Z,694.34
2017-01-09T09:44:05.020Z,696.61
2017-01-09T09:45:05.095Z,699.06
2017-01-09T09:46:05.066Z,702.14
2017-01-09T09:47:05.112Z,702.75
2017-01-09T09:48:04.957Z,704.49
2017-01-09T09:49:05.070Z,704.34
2017-01-09T09:50:04.991Z,705.88
2017-01-09T09:51:05.108Z,707.43
2017-01-09T09:52:05.005Z,707.55
2017-01-09T09:53:05.060Z,707.85
2017-01-09T09:54:05.047Z,708.77
2017-01-09T09:55:05.122Z,709.23
2017-01-09T09:56:04.995Z,711.96
2017-01-09T09:57:05.056Z,712.11
2017-01-09T09:58:05.001Z,715.36
2017-01-09T09:59:05.190Z,716.53
2017-01-09T10:00:05.034Z,717.46
2017-01-09T10:01:05.108Z,720.06
2017-01-09T10:02:05.038Z,721.2
2017-01-09T10:03:05.085Z,722.2
2017-01-09T10:04:05.030Z,722.37
2017-01-09T10:05:05.122Z,720.7
2017-01-09T10:06:05.016Z,719.04
2017-01-09T10:07:05.063Z,720.29
2017-01-09T10:08:05.002Z,721.96
2017-01-09T10:09:15.057Z,724.99
2017-01-09T10:10:05.058Z,724.63
2017-01-09T10:11:05.208Z,728.01
2017-01-09T10:12:05.127Z,727.13
2017-01-09T10:13:05.278Z,731.31
2017-01-09T10:14:05.210Z,733.16
2017-01-09T10:15:05.075Z,735.3
2017-01-09T10:16:05.037Z,737.63
2017-01-09T10:17:05.097Z,737.42
2017-01-09T10:18:05.037Z,738.6
2017-01-09T10:19:05.062Z,739.1
2017-01-09T10:20:05.076Z,741.88
2017-01-09T10:21:05.072Z,744.04
2017-01-09T10:22:05.030Z,746.85
2017-01-09T10:23:05.178Z,748.51
2017-01-09T10:24:05.037Z,748.79
2017-01-09T10:25:05.154Z,747.57
2017-01-09T10:26:05.008Z,750.33
2017-01-09T10:27:05.142Z,752.32
2017-01-09T10:28:05.027Z,758.02
2017-01-09T10:29:05.151Z,761.87
2017-01-09T10:30:05.086Z,762.36
2017-01-09T10:31:05.047Z,765.73
2017-01-09T10:32:05.120Z,767.8
2017-01-09T10:33:05.083Z,768.07
2017-01-09T10:34:05.130Z,769.24
2017-01-09T10:35:05.116Z,773.65
2017-01-09T10:36:05.043Z,781.12
2017-01-09T10:37:05.204Z,784.58
2017-01-09T10:38:05.055Z,784.22
2017-01-09T10:39:05.238Z,787.01
2017-01-09T10:40:05.077Z,783.53
2017-01-09T10:41:05.135Z,784.67
2017-01-09T10:42:05.060Z,782.43
2017-01-09T10:43:05.133Z,782.67
2017-01-09T10:44:05.068Z,782.62
2017-01-09T10:45:05.070Z,786.19
2017-01-09T10:46:05.043Z,790.24
2017-01-09T10:47:05.134Z,790.21
2017-01-09T10:48:05.055Z,789.45
2017-01-09T10:49:05.157Z,792.05
2017-01-09T10:50:05.086Z,793.48
2017-01-09T10:51:05.087Z,795.16
2017-01-09T10:52:05.078Z,793.52
2017-01-09T10:53:05.165Z,793.09
2017-01-09T10:54:05.076Z,791.72
2017-01-09T10:55:05.144Z,794.4
2017-01-09T10:56:05.085Z,791.58
2017-01-09T10:57:05.095Z,790.97
2017-01-09T10:58:05.065Z,784.6
2017-01-09T10:59:05.165Z,787.74
2017-01-09T11:00:05.084Z,781.46
2017-01-09T11:01:05.119Z,781.75
2017-01-09T11:02:05.065Z,784.58
2017-01-09T11:03:05.147Z,780.59
2017-01-09T11:04:05.164Z,781.19
2017-01-09T11:05:05.273Z,781.61
2017-01-09T11:06:05.115Z,785.08
2017-01-09T11:07:05.068Z,787.65
2017-01-09T11:08:05.105Z,789.38
2017-01-09T11:09:05.268Z,794.48
2017-01-09T11:10:05.107Z,786.78
2017-01-09T11:11:05.238Z,784.66
2017-01-09T11:12:05.106Z,789.7
2017-01-09T11:13:05.197Z,794.86
2017-01-09T11:14:05.143Z,796.25
2017-01-09T11:15:05.236Z,798.31
2017-01-09T11:16:05.157Z,797.31
2017-01-09T11:17:05.198Z,795.97
2017-01-09T11:18:05.156Z,798.64
2017-01-09T11:19:05.225Z,793.43
2017-01-09T11:20:05.106Z,800.28
2017-01-09T11:21:05.177Z,801.06
2017-01-09T11:22:05.105Z,799.8
2017-01-09T11:23:05.169Z,804.14
2017-01-09T11:24:05.125Z,804.15
2017-01-09T11:25:05.196Z,806.49
2017-01-09T11:26:05.132Z,808.56
2017-01-09T11:27:05.263Z,814.79
2017-01-09T11:28:05.124Z,821.15
2017-01-09T11:29:05.293Z,821.64
2017-01-09T11:30:05.112Z,827.35
2017-01-09T11:31:05.240Z,831.98
2017-01-09T11:32:05.103Z,836.85
2017-01-09T11:33:05.201Z,844.13
2017-01-09T11:34:05.138Z,850.52
2017-01-09T11:35:05.206Z,857.38
2017-01-09T11:36:05.133Z,862.96
2017-01-09T11:37:05.155Z,868.07
2017-01-09T11:38:05.111Z,869.37
2017-01-09T11:39:05.188Z,872.17
2017-01-09T11:40:05.176Z,874.35
2017-01-09T11:41:05.235Z,875.86
2017-01-09T11:42:05.115Z,874.46
2017-01-09T11:43:05.282Z,875.09
2017-01-09T11:44:05.147Z,875.88
2017-01-09T11:45:05.242Z,876.31
2017-01-09T11:46:05.137Z,876.09
2017-01-09T11:47:05.172Z,879.47
2017-01-09T11:48:05.136Z,880.55
2017-01-09T11:49:05.311Z,888.54
2017-01-09T11:50:05.255Z,890.19
2017-01-09T11:51:05.274Z,895.31
2017-01-09T11:52:05.200Z,899.04
2017-01-09T11:53:05.274Z,903.95
2017-01-09T11:54:05.220Z,904.54
2017-01-09T11:55:05.199Z,906.83
2017-01-09T11:56:05.167Z,913.98
2017-01-09T11:57:05.347Z,919.29
2017-01-09T11:58:05.265Z,918.14
2017-01-09T11:59:05.418Z,921.49
2017-01-09T12:00:05.315Z,922.91
2017-01-09T12:01:05.363Z,918.14
2017-01-09T12:02:05.319Z,917.26
2017-01-09T12:03:05.416Z,923.36
2017-01-09T12:04:05.422Z,924.53
2017-01-09T12:05:05.345Z,923.7
2017-01-09T12:06:05.456Z,918.75
2017-01-09T12:07:05.657Z,917.15
2017-01-09T12:08:05.548Z,908.05
2017-01-09T12:09:05.593Z,905.96
2017-01-09T12:10:05.419Z,899.29
2017-01-09T12:11:05.650Z,897.71
2017-01-09T12:12:05.422Z,891.96
2017-01-09T12:13:06.021Z,889.87
2017-01-09T12:14:05.463Z,891.39
2017-01-09T12:15:05.509Z,882.69
2017-01-09T12:16:05.504Z,891.76
2017-01-09T12:17:05.613Z,896.32
2017-01-09T12:18:05.479Z,893.77
2017-01-09T12:19:05.479Z,904.9
2017-01-09T12:20:05.342Z,908.47
2017-01-09T12:21:05.398Z,916.27
2017-01-09T12:22:05.467Z,926.35
2017-01-09T12:23:05.466Z,932.91
2017-01-09T12:24:05.339Z,937.02
2017-01-09T12:25:05.569Z,935.52
2017-01-09T12:26:05.460Z,938.9
2017-01-09T12:27:05.598Z,935.02
2017-01-09T12:28:05.374Z,937.33
2017-01-09T12:29:05.547Z,937.62
2017-01-09T12:30:05.538Z,944.96
2017-01-09T12:31:05.553Z,953.09